Time;durP1;ratioP1;P1;durP2;ratioP2;P2;SDS_P1;SDS_P2;PMS_P1;PMS_P2;Temp;Humidity;BMP_temperature;BMP_pressure;BME280_temperature;BME280_humidity;BME280_pressure;Samples;Min_cycle;Max_cycle;Signal;HPM_P1;HPM_P2
2023/07/30 00:01:37;;;;;;;16.20;3.20;;;18.00;99.90;;;;;;7285322;19;20216;-77
2023/07/30 00:04:02;;;;;;;10.53;2.83;;;18.00;99.90;;;;;;7285978;19;20225;-77
2023/07/30 00:06:28;;;;;;;17.30;3.53;;;18.00;99.90;;;;;;7285045;19;20212;-77
2023/07/30 00:08:54;;;;;;;17.33;3.40;;;17.90;99.90;;;;;;7284566;19;20252;-76
2023/07/30 00:11:19;;;;;;;14.07;3.07;;;18.00;99.90;;;;;;7289149;19;20181;-77
2023/07/30 00:13:45;;;;;;;18.10;3.23;;;18.00;99.90;;;;;;7307573;19;20191;-77
2023/07/30 00:16:11;;;;;;;19.40;3.70;;;18.00;99.90;;;;;;7286210;19;20196;-77
2023/07/30 00:18:36;;;;;;;15.77;2.70;;;18.00;99.90;;;;;;7286333;19;20189;-77
2023/07/30 00:21:02;;;;;;;16.37;3.17;;;18.10;99.90;;;;;;7285748;19;20205;-77
2023/07/30 00:23:28;;;;;;;12.63;2.97;;;18.20;99.90;;;;;;7285743;19;20825;-78
2023/07/30 00:25:53;;;;;;;15.43;3.13;;;18.30;99.90;;;;;;7286184;19;20185;-77
2023/07/30 00:28:19;;;;;;;15.03;3.37;;;18.30;99.90;;;;;;7293801;19;20189;-77
2023/07/30 00:30:45;;;;;;;12.40;3.10;;;18.40;99.90;;;;;;7305249;19;20247;-77
2023/07/30 00:33:11;;;;;;;18.17;3.63;;;18.40;99.90;;;;;;7283863;19;20659;-77
2023/07/30 00:35:37;;;;;;;16.53;3.27;;;18.50;99.90;;;;;;7284623;19;20189;-78
2023/07/30 00:38:03;;;;;;;14.33;3.10;;;18.50;99.90;;;;;;7285848;19;20185;-77
2023/07/30 00:40:29;;;;;;;15.60;3.10;;;18.50;99.90;;;;;;7284787;19;20203;-77
2023/07/30 00:42:55;;;;;;;9.77;3.43;;;18.50;99.90;;;;;;7284841;19;20192;-77
2023/07/30 00:45:21;;;;;;;11.90;3.27;;;18.50;99.90;;;;;;7285283;19;20202;-77
2023/07/30 00:47:47;;;;;;;15.47;3.37;;;18.50;99.90;;;;;;7307060;19;20536;-77
2023/07/30 00:50:15;;;;;;;13.57;3.30;;;18.40;99.90;;;;;;7284213;19;20209;-78
2023/07/30 00:52:41;;;;;;;14.20;2.93;;;18.50;99.90;;;;;;7284759;19;20193;-78
2023/07/30 00:55:07;;;;;;;13.60;2.90;;;18.50;99.90;;;;;;7285684;19;20213;-77
2023/07/30 00:57:36;;;;;;;16.93;3.27;;;18.60;99.90;;;;;;7284540;19;20191;-77
2023/07/30 01:00:04;;;;;;;17.57;3.30;;;18.60;99.90;;;;;;7286112;19;20657;-77
2023/07/30 01:02:31;;;;;;;14.80;3.47;;;18.60;99.90;;;;;;7284308;19;20584;-77
2023/07/30 01:04:59;;;;;;;11.70;3.00;;;18.70;99.90;;;;;;7281341;19;20528;-77
2023/07/30 01:07:25;;;;;;;16.63;3.43;;;18.70;99.90;;;;;;7284095;19;20189;-78
2023/07/30 01:09:52;;;;;;;18.17;2.90;;;18.70;99.90;;;;;;7282620;19;20256;-77
2023/07/30 01:12:18;;;;;;;15.20;3.17;;;18.70;99.90;;;;;;7306337;19;20362;-76
2023/07/30 01:14:46;;;;;;;15.67;3.47;;;18.70;99.90;;;;;;7293757;19;20284;-78
2023/07/30 01:17:13;;;;;;;19.57;3.57;;;18.80;99.90;;;;;;7284484;19;20193;-77
2023/07/30 01:19:38;;;;;;;14.23;3.00;;;18.80;99.90;;;;;;7286712;19;20194;-78
2023/07/30 01:22:04;;;;;;;16.10;2.90;;;18.80;99.90;;;;;;7284616;19;20223;-77
2023/07/30 01:24:30;;;;;;;18.00;3.23;;;18.70;99.90;;;;;;7283952;19;20197;-79
2023/07/30 01:27:00;;;;;;;13.00;2.87;;;18.80;99.90;;;;;;7283939;19;20212;-77
2023/07/30 01:29:33;;;;;;;15.13;3.20;;;18.80;99.90;;;;;;7283761;19;20680;-78
2023/07/30 01:32:04;;;;;;;15.93;3.10;;;18.80;99.90;;;;;;7280873;19;20779;-78
2023/07/30 01:34:34;;;;;;;12.97;2.80;;;18.80;99.90;;;;;;7284866;19;20214;-77
2023/07/30 01:37:00;;;;;;;16.47;3.07;;;18.80;99.90;;;;;;7281863;19;20192;-77
2023/07/30 01:39:28;;;;;;;15.00;2.80;;;18.70;99.90;;;;;;7281655;19;20206;-77
2023/07/30 01:41:54;;;;;;;16.27;3.20;;;18.70;99.90;;;;;;7283577;19;20549;-78
2023/07/30 01:44:20;;;;;;;13.63;2.87;;;18.60;99.90;;;;;;7284380;19;20810;-77
2023/07/30 01:46:46;;;;;;;14.90;2.67;;;18.70;99.90;;;;;;7305899;19;20188;-77
2023/07/30 01:49:12;;;;;;;13.53;2.70;;;18.80;99.90;;;;;;7284717;19;20195;-77
2023/07/30 01:51:37;;;;;;;14.57;2.83;;;18.80;99.90;;;;;;7282859;19;20196;-77
2023/07/30 01:54:03;;;;;;;13.67;2.87;;;18.80;99.90;;;;;;7284223;19;20197;-77
2023/07/30 01:56:29;;;;;;;16.23;2.83;;;18.80;99.90;;;;;;7282252;19;20192;-78
2023/07/30 01:58:55;;;;;;;19.80;3.23;;;18.70;99.90;;;;;;7282152;19;20668;-77
2023/07/30 02:01:21;;;;;;;20.00;2.87;;;18.70;99.90;;;;;;7282988;19;20185;-77
2023/07/30 02:03:47;;;;;;;13.43;2.63;;;18.70;99.90;;;;;;7302783;19;20194;-78
2023/07/30 02:06:12;;;;;;;16.07;3.20;;;18.70;99.90;;;;;;7282751;19;20192;-77
2023/07/30 02:08:38;;;;;;;13.87;2.70;;;18.70;99.90;;;;;;7283019;19;20217;-78
2023/07/30 02:11:04;;;;;;;13.10;3.07;;;18.60;99.90;;;;;;7281502;19;20220;-78
2023/07/30 02:13:29;;;;;;;14.17;3.70;;;18.60;99.90;;;;;;7280848;19;20196;-77
2023/07/30 02:15:55;;;;;;;13.37;2.60;;;18.60;99.90;;;;;;7281386;19;20230;-77
2023/07/30 02:18:21;;;;;;;15.13;2.77;;;18.60;99.90;;;;;;7282033;19;20177;-78
2023/07/30 02:20:47;;;;;;;13.43;2.77;;;18.60;99.90;;;;;;7303514;19;20203;-77
2023/07/30 02:23:15;;;;;;;13.27;2.43;;;18.50;99.90;;;;;;7281360;19;20183;-77
2023/07/30 02:25:41;;;;;;;14.90;2.67;;;18.40;99.90;;;;;;7289433;19;20195;-77
2023/07/30 02:28:07;;;;;;;18.67;2.73;;;18.30;99.90;;;;;;7295747;19;20185;-77
2023/07/30 02:30:34;;;;;;;12.80;2.57;;;18.20;99.90;;;;;;7296029;19;20541;-77
2023/07/30 02:32:59;;;;;;;17.40;2.83;;;18.20;99.90;;;;;;7294673;19;20225;-77
2023/07/30 02:35:25;;;;;;;13.43;2.60;;;18.10;99.90;;;;;;7296286;19;20180;-77
2023/07/30 02:37:51;;;;;;;16.00;2.70;;;18.10;99.90;;;;;;7295240;19;20213;-77
2023/07/30 02:40:17;;;;;;;16.87;2.60;;;18.10;99.90;;;;;;7318082;19;20352;-78
2023/07/30 02:42:42;;;;;;;13.17;2.83;;;18.10;99.90;;;;;;7293810;19;20189;-78
2023/07/30 02:45:08;;;;;;;16.53;2.73;;;18.10;99.90;;;;;;7294749;19;20713;-79
2023/07/30 02:47:34;;;;;;;17.87;2.57;;;18.10;99.90;;;;;;7295257;19;20199;-78
2023/07/30 02:50:00;;;;;;;16.83;2.67;;;18.10;99.90;;;;;;7293826;19;20188;-77
2023/07/30 02:52:26;;;;;;;17.07;2.70;;;18.20;99.90;;;;;;7294204;19;20202;-77
2023/07/30 02:54:52;;;;;;;13.50;2.53;;;18.20;99.90;;;;;;7294456;19;20199;-77
2023/07/30 02:57:17;;;;;;;14.13;2.87;;;18.20;99.90;;;;;;7315311;19;20197;-78
2023/07/30 02:59:43;;;;;;;19.90;2.73;;;18.20;99.90;;;;;;7295071;19;20197;-77
2023/07/30 03:02:09;;;;;;;16.50;2.80;;;18.20;99.90;;;;;;7294375;19;20566;-78
2023/07/30 03:04:35;;;;;;;13.93;2.30;;;18.10;99.90;;;;;;7293878;19;20189;-78
2023/07/30 03:07:01;;;;;;;18.97;2.67;;;18.20;99.90;;;;;;7292910;19;20216;-78
2023/07/30 03:09:27;;;;;;;16.90;2.60;;;18.00;99.90;;;;;;7295341;19;20674;-78
2023/07/30 03:11:53;;;;;;;14.07;2.27;;;18.10;99.90;;;;;;7294827;19;20193;-77
2023/07/30 03:14:22;;;;;;;19.13;3.17;;;18.10;99.90;;;;;;7294108;19;20210;-77
2023/07/30 03:16:48;;;;;;;21.63;2.70;;;18.00;99.90;;;;;;7315058;19;20181;-77
2023/07/30 03:19:14;;;;;;;20.53;3.53;;;18.00;99.90;;;;;;7293248;19;20584;-78
2023/07/30 03:21:40;;;;;;;16.57;2.70;;;18.00;99.90;;;;;;7292155;19;20184;-78
2023/07/30 03:24:06;;;;;;;18.80;2.70;;;18.00;99.90;;;;;;7294756;19;20180;-78
2023/07/30 03:26:31;;;;;;;20.00;2.77;;;17.90;99.90;;;;;;7293779;19;20838;-77
2023/07/30 03:28:57;;;;;;;17.77;2.80;;;17.80;99.90;;;;;;7294973;19;20191;-77
2023/07/30 03:31:23;;;;;;;22.10;3.03;;;17.80;99.90;;;;;;7294723;19;20272;-77
2023/07/30 03:33:48;;;;;;;16.43;2.70;;;17.70;99.90;;;;;;7316508;19;20261;-78
2023/07/30 03:36:15;;;;;;;17.33;2.57;;;17.70;99.90;;;;;;7289626;19;20254;-77
2023/07/30 03:38:41;;;;;;;16.50;2.63;;;17.60;99.90;;;;;;7287443;19;20206;-78
2023/07/30 03:41:07;;;;;;;18.60;2.80;;;17.60;99.90;;;;;;7285547;19;20189;-77
2023/07/30 03:43:34;;;;;;;19.53;3.23;;;17.60;99.90;;;;;;7287296;19;20185;-77
2023/07/30 03:46:00;;;;;;;23.77;2.60;;;17.50;99.90;;;;;;7287335;19;20216;-77
2023/07/30 03:48:26;;;;;;;15.97;2.47;;;17.50;99.90;;;;;;7286413;19;20251;-77
2023/07/30 03:50:53;;;;;;;16.93;2.97;;;17.50;99.90;;;;;;7286864;19;20177;-77
2023/07/30 03:53:19;;;;;;;19.60;2.70;;;17.60;99.90;;;;;;7307685;19;20650;-78
2023/07/30 03:55:44;;;;;;;16.80;2.73;;;17.50;99.90;;;;;;7286210;19;20185;-78
2023/07/30 03:58:10;;;;;;;17.23;2.77;;;17.40;99.90;;;;;;7285849;19;20174;-77
2023/07/30 04:00:36;;;;;;;12.93;2.30;;;17.50;99.90;;;;;;7286193;19;20202;-77
2023/07/30 04:03:01;;;;;;;21.67;3.87;;;17.50;99.90;;;;;;7286671;19;20225;-77
2023/07/30 04:05:28;;;;;;;20.23;2.30;;;17.40;99.90;;;;;;7284090;19;20564;-78
2023/07/30 04:07:54;;;;;;;19.77;2.73;;;17.30;99.90;;;;;;7286239;19;20606;-77
2023/07/30 04:10:20;;;;;;;19.10;2.97;;;17.30;99.90;;;;;;7299105;19;20263;-77
2023/07/30 04:12:46;;;;;;;19.73;2.83;;;17.30;99.90;;;;;;7304417;19;20615;-77
2023/07/30 04:15:12;;;;;;;15.63;3.07;;;17.30;99.90;;;;;;7285278;19;20192;-77
2023/07/30 04:17:37;;;;;;;18.97;2.70;;;17.30;99.90;;;;;;7286638;19;20215;-77
2023/07/30 04:20:05;;;;;;;15.73;2.53;;;17.30;99.90;;;;;;7284102;19;20196;-77
2023/07/30 04:22:31;;;;;;;18.70;2.50;;;17.30;99.90;;;;;;7286650;19;20192;-77
2023/07/30 04:24:57;;;;;;;18.87;2.73;;;17.30;99.90;;;;;;7285669;19;20188;-77
2023/07/30 04:27:22;;;;;;;16.37;2.87;;;17.30;99.90;;;;;;7283524;19;20194;-77
2023/07/30 04:29:48;;;;;;;17.33;3.23;;;17.30;99.90;;;;;;7306613;19;20537;-78
2023/07/30 04:32:14;;;;;;;17.03;2.80;;;17.30;99.90;;;;;;7285543;19;20183;-77
2023/07/30 04:34:40;;;;;;;17.60;2.87;;;17.30;99.90;;;;;;7284618;19;20197;-78
2023/07/30 04:37:06;;;;;;;22.67;3.37;;;17.40;99.90;;;;;;7282888;19;20194;-77
2023/07/30 04:39:34;;;;;;;24.77;3.60;;;17.50;99.90;;;;;;7285060;19;20195;-77
2023/07/30 04:42:05;;;;;;;19.60;2.97;;;17.50;99.90;;;;;;7285661;19;20297;-77
2023/07/30 04:44:31;;;;;;;20.27;2.87;;;17.60;99.90;;;;;;7284583;19;20185;-77
2023/07/30 04:47:03;;;;;;;18.13;3.00;;;17.60;99.90;;;;;;7284287;19;20201;-77
2023/07/30 04:49:29;;;;;;;17.23;3.23;;;17.70;99.90;;;;;;7283776;19;20180;-78
2023/07/30 04:51:55;;;;;;;23.00;3.17;;;17.80;99.90;;;;;;7284100;19;20185;-77
2023/07/30 04:54:21;;;;;;;18.10;2.77;;;17.80;99.90;;;;;;7290495;19;20188;-77
2023/07/30 04:56:46;;;;;;;15.43;2.50;;;17.80;99.90;;;;;;7305728;19;20188;-77
2023/07/30 04:59:12;;;;;;;21.73;3.23;;;17.90;99.90;;;;;;7282166;19;20181;-78
2023/07/30 05:01:38;;;;;;;14.37;2.40;;;17.80;99.90;;;;;;7284351;19;20200;-78
2023/07/30 05:04:04;;;;;;;16.23;2.80;;;17.90;99.90;;;;;;7283474;19;20199;-77
2023/07/30 05:06:29;;;;;;;22.63;3.37;;;17.80;99.90;;;;;;7284313;19;20189;-77
2023/07/30 05:08:55;;;;;;;20.40;3.00;;;17.80;99.90;;;;;;7283863;19;20248;-77
2023/07/30 05:11:21;;;;;;;19.53;2.90;;;17.90;99.90;;;;;;7289872;19;20189;-79
2023/07/30 05:13:46;;;;;;;16.90;2.93;;;17.90;99.90;;;;;;7306733;19;20244;-78
2023/07/30 05:16:12;;;;;;;18.33;2.83;;;17.80;99.90;;;;;;7284390;19;20184;-78
2023/07/30 05:18:38;;;;;;;19.27;3.00;;;17.80;99.90;;;;;;7282359;19;20793;-77
2023/07/30 05:21:03;;;;;;;16.27;3.13;;;17.80;99.90;;;;;;7282606;19;20205;-77
2023/07/30 05:23:29;;;;;;;15.87;3.30;;;17.90;99.90;;;;;;7281068;19;20663;-78
2023/07/30 05:25:55;;;;;;;14.23;2.77;;;18.00;99.90;;;;;;7282767;19;20182;-78
2023/07/30 05:28:20;;;;;;;24.43;3.23;;;18.00;99.90;;;;;;7289877;19;20581;-77
2023/07/30 05:30:46;;;;;;;15.70;2.53;;;17.80;99.90;;;;;;7302757;19;20976;-78
2023/07/30 05:33:12;;;;;;;18.20;2.67;;;17.90;99.90;;;;;;7282705;19;20293;-77
2023/07/30 05:35:37;;;;;;;18.00;3.07;;;17.90;99.90;;;;;;7284701;19;20189;-77
2023/07/30 05:38:03;;;;;;;14.13;2.50;;;17.90;99.90;;;;;;7281792;19;20189;-77
2023/07/30 05:40:29;;;;;;;13.80;2.47;;;17.90;99.90;;;;;;7282287;19;20550;-77
2023/07/30 05:42:54;;;;;;;20.47;4.43;;;17.90;99.90;;;;;;7282644;19;20531;-77
2023/07/30 05:45:20;;;;;;;22.30;3.63;;;18.00;99.90;;;;;;7296100;19;20192;-77
2023/07/30 05:47:46;;;;;;;15.13;2.47;;;18.10;99.90;;;;;;7298028;19;20185;-77
2023/07/30 05:50:11;;;;;;;16.63;2.70;;;18.20;99.90;;;;;;7282024;19;21205;-78
2023/07/30 05:52:37;;;;;;;14.77;2.80;;;18.20;99.90;;;;;;7283120;19;20199;-78
2023/07/30 05:55:03;;;;;;;18.00;2.80;;;18.30;99.90;;;;;;7282920;19;20262;-75
2023/07/30 05:57:29;;;;;;;14.43;2.73;;;18.30;99.90;;;;;;7281206;19;20202;-76
2023/07/30 05:59:55;;;;;;;15.43;2.87;;;18.40;99.90;;;;;;7275997;19;20984;-77
2023/07/30 06:02:21;;;;;;;14.97;2.73;;;18.50;99.90;;;;;;7286689;19;20200;-76
2023/07/30 06:04:47;;;;;;;19.43;2.83;;;18.40;99.90;;;;;;7303555;19;20285;-77
2023/07/30 06:07:12;;;;;;;19.10;2.80;;;18.50;99.90;;;;;;7283825;19;20187;-77
2023/07/30 06:09:38;;;;;;;21.30;3.13;;;18.40;99.90;;;;;;7282628;19;20648;-77
2023/07/30 06:12:04;;;;;;;17.43;2.73;;;18.40;99.90;;;;;;7281308;19;20187;-76
2023/07/30 06:14:29;;;;;;;19.13;3.37;;;18.50;99.90;;;;;;7282316;19;20192;-77
2023/07/30 06:16:55;;;;;;;20.13;2.90;;;18.50;99.90;;;;;;7283343;19;20193;-76
2023/07/30 06:19:21;;;;;;;19.60;2.90;;;18.60;99.90;;;;;;7291334;19;20192;-77
2023/07/30 06:21:47;;;;;;;19.53;3.27;;;18.50;99.90;;;;;;7304452;19;21378;-77
2023/07/30 06:24:12;;;;;;;16.37;2.77;;;18.50;99.90;;;;;;7280866;19;20189;-77
2023/07/30 06:26:38;;;;;;;19.10;3.27;;;18.50;99.90;;;;;;7281201;19;20196;-77
2023/07/30 06:29:04;;;;;;;21.83;3.23;;;18.70;99.90;;;;;;7281431;19;20655;-77
2023/07/30 06:31:30;;;;;;;24.30;3.20;;;18.80;99.90;;;;;;7279184;19;20764;-76
2023/07/30 06:33:56;;;;;;;17.73;3.17;;;18.70;99.90;;;;;;7280819;19;20192;-77
2023/07/30 06:36:21;;;;;;;19.53;3.27;;;18.90;99.90;;;;;;7283363;19;20185;-75
2023/07/30 06:38:47;;;;;;;16.43;2.83;;;19.10;99.90;;;;;;7302828;19;20181;-77
2023/07/30 06:41:13;;;;;;;19.70;2.50;;;19.30;99.90;;;;;;7281133;19;20184;-78
2023/07/30 06:43:39;;;;;;;19.90;3.53;;;19.30;99.90;;;;;;7281851;19;20184;-78
2023/07/30 06:46:04;;;;;;;19.77;3.13;;;19.30;99.90;;;;;;7281696;19;20189;-76
2023/07/30 06:48:30;;;;;;;17.17;2.80;;;19.30;99.90;;;;;;7281889;19;20191;-76
2023/07/30 06:50:56;;;;;;;21.87;3.10;;;19.30;99.90;;;;;;7279645;19;20192;-75
2023/07/30 06:53:22;;;;;;;22.90;3.10;;;19.30;99.90;;;;;;7279141;19;20185;-76
2023/07/30 06:55:48;;;;;;;19.80;3.40;;;19.50;99.90;;;;;;7301114;19;20255;-76
2023/07/30 06:58:14;;;;;;;18.77;2.43;;;20.00;99.90;;;;;;7278200;19;20197;-76
2023/07/30 07:00:39;;;;;;;14.30;2.67;;;21.10;99.90;;;;;;7277575;19;20195;-77
2023/07/30 07:03:05;;;;;;;16.90;3.03;;;23.20;99.90;;;;;;7278993;19;20200;-76
2023/07/30 07:05:31;;;;;;;15.87;2.43;;;24.70;99.90;;;;;;7279023;19;20217;-76
2023/07/30 07:07:57;;;;;;;15.60;2.70;;;25.60;99.90;;;;;;7278883;19;20230;-75
2023/07/30 07:10:23;;;;;;;14.83;2.43;;;25.90;99.90;;;;;;7276199;19;20212;-75
2023/07/30 07:12:49;;;;;;;17.33;2.53;;;25.10;99.90;;;;;;7309165;19;20529;-76
2023/07/30 07:15:15;;;;;;;12.00;2.47;;;25.60;99.90;;;;;;7287670;19;20189;-77
2023/07/30 07:17:41;;;;;;;20.03;2.57;;;26.90;99.90;;;;;;7288079;19;20529;-76
2023/07/30 07:20:07;;;;;;;18.08;2.90;;;26.00;99.90;;;;;;7285760;19;20188;-76
2023/07/30 07:22:33;;;;;;;15.40;2.42;;;25.70;99.90;;;;;;7285304;19;20212;-77
2023/07/30 07:24:59;;;;;;;17.90;3.53;;;25.10;99.90;;;;;;7285395;19;20189;-76
2023/07/30 07:27:25;;;;;;;14.03;2.67;;;25.40;99.90;;;;;;7283091;19;20294;-76
2023/07/30 07:29:51;;;;;;;13.50;2.20;;;25.20;99.90;;;;;;7295543;19;20192;-76
2023/07/30 07:32:18;;;;;;;13.77;2.30;;;24.90;99.90;;;;;;7306027;19;20611;-77
2023/07/30 07:34:48;;;;;;;15.77;2.87;;;23.90;99.90;;;;;;7283605;19;20188;-76
2023/07/30 07:37:18;;;;;;;14.60;2.23;;;23.60;99.90;;;;;;7283215;19;20779;-76
2023/07/30 07:39:44;;;;;;;15.13;2.73;;;23.00;99.90;;;;;;7283984;19;20218;-77
2023/07/30 07:42:10;;;;;;;17.87;2.73;;;22.60;99.90;;;;;;7284912;19;20233;-76
2023/07/30 07:44:36;;;;;;;19.73;2.90;;;22.50;99.90;;;;;;7285991;19;20185;-76
2023/07/30 07:47:02;;;;;;;13.97;2.60;;;22.40;99.90;;;;;;7284716;19;20196;-77
2023/07/30 07:49:27;;;;;;;18.53;2.70;;;22.50;99.90;;;;;;7283983;19;20203;-76
2023/07/30 07:51:53;;;;;;;15.03;2.67;;;23.40;99.90;;;;;;7285283;19;20204;-76
2023/07/30 07:54:19;;;;;;;13.33;2.53;;;23.60;99.90;;;;;;7306770;19;20191;-76
2023/07/30 07:56:44;;;;;;;13.47;2.50;;;23.60;99.90;;;;;;7284743;19;20209;-76
2023/07/30 07:59:10;;;;;;;15.17;2.27;;;23.40;99.90;;;;;;7283032;19;20212;-77
2023/07/30 08:01:36;;;;;;;12.60;2.60;;;23.00;99.90;;;;;;7284534;19;20195;-77
2023/07/30 08:04:02;;;;;;;18.93;3.00;;;22.80;99.90;;;;;;7285246;19;20199;-76
2023/07/30 08:06:28;;;;;;;14.47;2.37;;;22.90;99.90;;;;;;7285053;19;20191;-77
2023/07/30 08:08:53;;;;;;;12.97;2.37;;;22.60;99.90;;;;;;7282373;19;20182;-75
2023/07/30 08:11:19;;;;;;;14.00;2.67;;;22.80;99.90;;;;;;7305521;19;20261;-76
2023/07/30 08:13:45;;;;;;;16.73;2.30;;;23.20;99.90;;;;;;7286061;19;20188;-78
2023/07/30 08:16:11;;;;;;;11.07;1.93;;;25.00;99.90;;;;;;7284145;19;20664;-76
2023/07/30 08:18:37;;;;;;;14.80;2.40;;;25.10;99.90;;;;;;7283374;19;20523;-77
2023/07/30 08:21:03;;;;;;;13.50;2.40;;;24.60;99.90;;;;;;7285138;19;20199;-77
2023/07/30 08:23:29;;;;;;;12.93;2.33;;;24.20;99.90;;;;;;7281190;19;20196;-76
2023/07/30 08:25:54;;;;;;;13.17;2.50;;;24.20;99.90;;;;;;7284405;19;20188;-76
2023/07/30 08:28:20;;;;;;;12.17;2.23;;;24.20;99.90;;;;;;7303627;19;20188;-75
2023/07/30 08:30:46;;;;;;;15.87;2.60;;;23.40;99.90;;;;;;7291488;19;20181;-76
2023/07/30 08:33:12;;;;;;;12.00;1.97;;;23.50;99.90;;;;;;7282184;19;21040;-77
2023/07/30 08:35:37;;;;;;;11.53;2.33;;;23.40;99.90;;;;;;7282253;19;20188;-77
2023/07/30 08:38:03;;;;;;;16.90;2.40;;;23.50;99.90;;;;;;7283545;19;20189;-76
2023/07/30 08:40:29;;;;;;;13.80;2.17;;;23.00;99.90;;;;;;7278845;19;20192;-76
2023/07/30 08:42:55;;;;;;;17.57;1.80;;;22.90;99.90;;;;;;7281267;19;20203;-75
2023/07/30 08:45:21;;;;;;;11.53;1.80;;;22.90;99.90;;;;;;7293713;19;20193;-76
2023/07/30 08:47:47;;;;;;;12.73;2.43;;;23.20;99.90;;;;;;7301109;19;20189;-76
2023/07/30 08:50:14;;;;;;;13.53;2.50;;;23.50;99.90;;;;;;7283483;19;20260;-76
2023/07/30 08:52:40;;;;;;;10.30;2.00;;;23.70;99.90;;;;;;7282372;19;20196;-76
2023/07/30 08:55:07;;;;;;;13.73;2.20;;;23.90;99.90;;;;;;7282647;19;20678;-75
2023/07/30 08:57:33;;;;;;;12.23;1.87;;;23.50;99.90;;;;;;7282959;19;20185;-76
2023/07/30 09:00:10;;;;;;;14.27;2.10;;;23.20;99.90;;;;;;7283046;19;20180;-76
2023/07/30 09:02:45;;;;;;;12.80;1.90;;;22.90;99.90;;;;;;7282129;19;20203;-76
2023/07/30 09:05:11;;;;;;;11.20;2.07;;;22.50;99.90;;;;;;7281246;19;20200;-76
2023/07/30 09:07:37;;;;;;;15.80;2.30;;;22.20;99.90;;;;;;7282378;19;20786;-76
2023/07/30 09:10:03;;;;;;;14.53;2.37;;;22.10;99.90;;;;;;7280379;19;20869;-76
2023/07/30 09:12:30;;;;;;;13.20;1.73;;;22.00;99.90;;;;;;7280720;19;20191;-76
2023/07/30 09:14:56;;;;;;;12.77;1.67;;;22.00;99.90;;;;;;7281709;19;20194;-76
2023/07/30 09:17:22;;;;;;;13.63;1.90;;;22.30;99.90;;;;;;7285078;19;20184;-76
2023/07/30 09:19:50;;;;;;;13.50;2.23;;;22.40;99.90;;;;;;7302170;19;20196;-76
2023/07/30 09:22:29;;;;;;;12.20;2.33;;;22.70;99.90;;;;;;7282218;19;20181;-76
2023/07/30 09:24:56;;;;;;;7.87;1.70;;;22.60;99.90;;;;;;7260240;19;20741;-76
2023/07/30 09:27:25;;;;;;;10.27;1.67;;;22.80;99.90;;;;;;7286948;19;20271;-75
2023/07/30 09:29:57;;;;;;;12.97;2.07;;;23.00;99.90;;;;;;7301696;19;20260;-75
2023/07/30 09:32:28;;;;;;;12.63;1.90;;;24.50;99.90;;;;;;7280619;19;20256;-75
2023/07/30 09:34:54;;;;;;;16.53;2.00;;;25.60;99.90;;;;;;7277559;19;20181;-76
2023/07/30 09:37:20;;;;;;;11.67;2.40;;;26.10;99.90;;;;;;7302317;19;20189;-76
2023/07/30 09:39:48;;;;;;;10.40;2.37;;;26.30;99.90;;;;;;7279912;19;20217;-76
2023/07/30 09:42:14;;;;;;;12.43;1.60;;;26.50;99.90;;;;;;7280397;19;20189;-76
2023/07/30 09:44:39;;;;;;;14.07;2.20;;;26.10;99.90;;;;;;7281224;19;20189;-76
2023/07/30 09:47:09;;;;;;;10.10;1.70;;;25.90;99.90;;;;;;7278590;19;20709;-76
2023/07/30 09:49:36;;;;;;;11.20;1.83;;;25.80;99.90;;;;;;7281022;19;20193;-76
2023/07/30 09:52:03;;;;;;;13.57;1.90;;;25.30;99.90;;;;;;7279678;19;20192;-79
2023/07/30 09:54:30;;;;;;;9.53;1.80;;;24.60;99.90;;;;;;7281180;19;20217;-77
2023/07/30 09:56:56;;;;;;;12.97;2.83;;;24.40;99.90;;;;;;7282653;19;20184;-77
2023/07/30 09:59:22;;;;;;;12.73;2.10;;;24.40;99.90;;;;;;7286731;19;20188;-76
2023/07/30 10:01:49;;;;;;;12.13;1.67;;;24.40;99.90;;;;;;7301771;19;20185;-75
2023/07/30 10:04:19;;;;;;;12.13;1.97;;;23.90;99.90;;;;;;7281209;19;20185;-76
2023/07/30 10:06:49;;;;;;;11.40;2.00;;;23.70;99.90;;;;;;7280528;19;20181;-76
2023/07/30 10:09:19;;;;;;;12.67;1.90;;;24.30;99.90;;;;;;7281659;19;20263;-77
2023/07/30 10:11:47;;;;;;;13.73;1.70;;;24.60;99.90;;;;;;7277795;19;20184;-76
2023/07/30 10:14:14;;;;;;;12.20;1.80;;;24.90;99.90;;;;;;7279736;19;20251;-76
2023/07/30 10:16:53;;;;;;;12.53;1.70;;;24.80;99.90;;;;;;7281885;19;20205;-76
2023/07/30 10:19:25;;;;;;;13.47;2.53;;;25.70;99.90;;;;;;7279537;19;20181;-76
2023/07/30 10:21:53;;;;;;;9.48;1.80;;;27.90;99.90;;;;;;7272081;19;20217;-76
2023/07/30 10:24:19;;;;;;;8.35;1.50;;;28.60;99.90;;;;;;7301531;19;20594;-76
2023/07/30 10:26:44;;;;;;;9.32;2.15;;;29.40;99.90;;;;;;7277197;19;20177;-76
2023/07/30 10:29:18;;;;;;;13.57;2.28;;;29.60;99.90;;;;;;7280377;19;21346;-77
2023/07/30 10:31:52;;;;;;;9.15;1.80;;;31.20;99.90;;;;;;7276649;19;20214;-76
2023/07/30 10:34:18;;;;;;;9.77;1.80;;;30.10;99.90;;;;;;7279751;19;20261;-76
2023/07/30 10:36:48;;;;;;;10.73;1.55;;;28.50;99.90;;;;;;7279520;19;20201;-76
2023/07/30 10:39:16;;;;;;;12.30;2.20;;;27.60;99.90;;;;;;7278852;19;20188;-76
2023/07/30 10:41:44;;;;;;;10.98;1.63;;;26.80;99.90;;;;;;7278666;19;20185;-76
2023/07/30 10:44:28;;;;;;;13.05;1.95;;;25.70;99.90;;;;;;7276422;19;20648;-76
2023/07/30 10:46:58;;;;;;;14.30;4.40;;;24.60;99.90;;;;;;7262385;19;20192;-75
2023/07/30 10:49:24;;;;;;;11.40;1.80;;;24.40;99.90;;;;;;7284467;19;20771;-76
2023/07/30 10:51:52;;;;;;;8.40;1.63;;;24.30;99.90;;;;;;7307604;19;20192;-76
2023/07/30 10:54:18;;;;;;;13.20;1.80;;;24.30;99.90;;;;;;7317663;19;20662;-75
2023/07/30 10:56:45;;;;;;;10.93;2.20;;;24.30;99.90;;;;;;7282925;19;20189;-76
2023/07/30 10:59:12;;;;;;;11.73;1.80;;;24.90;99.90;;;;;;7285775;19;20185;-76
2023/07/30 11:01:42;;;;;;;10.20;1.67;;;25.60;99.90;;;;;;7285472;19;20563;-76
2023/07/30 11:04:16;;;;;;;7.67;1.70;;;26.50;99.90;;;;;;7283117;19;20607;-76
2023/07/30 11:06:50;;;;;;;13.98;2.22;;;27.10;99.90;;;;;;7284875;19;20196;-78
2023/07/30 11:09:22;;;;;;;6.70;1.45;;;27.40;99.90;;;;;;7284552;19;20622;-77
2023/07/30 11:11:49;;;;;;;6.72;1.40;;;27.50;99.90;;;;;;7286008;19;21059;-77
2023/07/30 11:14:22;;;;;;;7.90;1.83;;;28.70;99.90;;;;;;7282614;19;20228;-77
2023/07/30 11:16:53;;;;;;;6.80;1.40;;;29.40;99.90;;;;;;7284986;19;20200;-74
2023/07/30 11:19:19;;;;;;;6.10;1.20;;;30.50;97.40;;;;;;7286152;19;20204;-77
2023/07/30 11:21:50;;;;;;;9.40;1.58;;;30.50;94.10;;;;;;7285523;19;20188;-77
2023/07/30 11:24:16;;;;;;;7.13;1.23;;;31.00;95.80;;;;;;7283632;19;20656;-78
2023/07/30 11:26:43;;;;;;;10.57;1.10;;;31.90;92.40;;;;;;7283843;19;20224;-75
2023/07/30 11:29:19;;;;;;;5.82;0.98;;;32.20;85.40;;;;;;7284308;19;20531;-76
2023/07/30 11:31:46;;;;;;;10.63;1.40;;;32.50;86.60;;;;;;7284412;19;20208;-75
2023/07/30 11:34:14;;;;;;;8.23;1.25;;;33.40;82.50;;;;;;7283665;19;20193;-75
2023/07/30 11:36:41;;;;;;;5.13;1.10;;;32.90;77.70;;;;;;7283003;19;20191;-77
2023/07/30 11:39:09;;;;;;;6.88;1.20;;;32.60;79.20;;;;;;7286019;19;20188;-75
2023/07/30 11:41:35;;;;;;;5.93;1.23;;;32.10;79.60;;;;;;7286731;19;20256;-76
2023/07/30 11:44:01;;;;;;;8.20;1.17;;;31.90;79.50;;;;;;7308027;19;20185;-75
2023/07/30 11:46:27;;;;;;;8.30;1.20;;;31.50;80.80;;;;;;7287046;19;20191;-75
2023/07/30 11:49:09;;;;;;;9.13;1.83;;;30.30;81.30;;;;;;7286104;19;20626;-76
2023/07/30 11:51:35;;;;;;;7.45;1.70;;;29.70;86.90;;;;;;7264496;19;20192;-75
2023/07/30 11:54:02;;;;;;;7.70;1.42;;;28.80;86.90;;;;;;7309731;19;20645;-77
2023/07/30 11:56:33;;;;;;;6.75;1.40;;;29.50;90.80;;;;;;7288968;19;20185;-76
2023/07/30 11:59:07;;;;;;;5.65;1.50;;;30.70;90.10;;;;;;7285337;19;20184;-76
2023/07/30 12:01:34;;;;;;;6.88;1.75;;;31.90;90.10;;;;;;7272768;19;20590;-75
2023/07/30 12:04:02;;;;;;;7.65;1.30;;;31.50;83.90;;;;;;7310306;19;20561;-76
2023/07/30 12:06:48;;;;;;;7.78;1.40;;;29.90;84.90;;;;;;7287358;19;20181;-77
2023/07/30 12:09:19;;;;;;;8.23;1.75;;;28.50;89.80;;;;;;7182411;19;2004749;-76
2023/07/30 12:11:53;;;;;;;5.00;1.48;;;27.50;92.40;;;;;;7284998;19;20960;-76
2023/07/30 12:14:21;;;;;;;9.68;1.80;;;27.70;95.00;;;;;;7284260;19;20229;-76
2023/07/30 12:16:47;;;;;;;6.53;1.63;;;28.50;98.10;;;;;;7283038;19;20185;-76
2023/07/30 12:19:13;;;;;;;9.23;1.73;;;29.80;98.20;;;;;;7284250;19;20676;-77
2023/07/30 12:21:39;;;;;;;8.32;1.35;;;29.70;91.70;;;;;;7284142;19;20200;-76
2023/07/30 12:24:04;;;;;;;7.63;1.55;;;29.40;93.10;;;;;;7285175;19;20204;-76
2023/07/30 12:26:30;;;;;;;7.47;1.80;;;29.00;91.90;;;;;;7305446;19;20782;-76
2023/07/30 12:28:56;;;;;;;9.32;1.63;;;28.20;92.80;;;;;;7281784;19;20200;-77
2023/07/30 12:31:22;;;;;;;7.03;1.55;;;27.40;95.10;;;;;;7280435;19;20768;-76
2023/07/30 12:33:47;;;;;;;7.45;1.33;;;27.00;97.30;;;;;;7284893;19;20192;-76
2023/07/30 12:36:13;;;;;;;7.07;1.30;;;27.20;97.70;;;;;;7282384;19;20197;-76